Time;durP1;ratioP1;P1;durP2;ratioP2;P2;SDS_P1;SDS_P2;PMS_P1;PMS_P2;Temp;Humidity;BMP_temperature;BMP_pressure;BME280_temperature;BME280_humidity;BME280_pressure;Samples;Min_cycle;Max_cycle;Signal;HPM_P1;HPM_P2
2021/08/04 00:00:13;;;;;;;6.82;0.98;;;;;;;;;;5071656;28;20378;-75
2021/08/04 00:03:16;;;;;;;1.60;0.63;;;;;;;;;;5072143;28;20044;-77
2021/08/04 00:06:20;;;;;;;1.95;0.77;;;;;;;;;;5071287;28;20037;-77
2021/08/04 00:09:23;;;;;;;2.65;1.35;;;;;;;;;;5071260;28;20362;-76
2021/08/04 00:12:26;;;;;;;4.38;1.38;;;;;;;;;;5071075;28;20485;-77
2021/08/04 00:15:29;;;;;;;3.63;1.17;;;;;;;;;;5070791;28;20048;-77
2021/08/04 00:18:32;;;;;;;4.63;1.60;;;;;;;;;;5070930;28;20041;-78
2021/08/04 00:21:35;;;;;;;2.10;0.65;;;;;;;;;;5070668;28;20040;-77
2021/08/04 00:24:38;;;;;;;3.22;1.67;;;;;;;;;;5070278;28;20040;-76
2021/08/04 00:27:41;;;;;;;2.47;1.02;;;;;;;;;;5070119;28;20036;-77
2021/08/04 00:30:44;;;;;;;5.60;1.42;;;;;;;;;;5070627;28;20401;-77
2021/08/04 00:33:48;;;;;;;9.52;0.90;;;;;;;;;;5070341;28;20449;-77
2021/08/04 00:36:51;;;;;;;3.80;1.25;;;;;;;;;;5070290;28;20033;-77
2021/08/04 00:39:54;;;;;;;6.88;1.50;;;;;;;;;;5071389;28;20036;-76
2021/08/04 00:42:57;;;;;;;2.70;1.20;;;;;;;;;;5038379;28;20776;-75
2021/08/04 00:46:00;;;;;;;6.55;1.52;;;;;;;;;;5032531;28;20032;-75
2021/08/04 00:49:03;;;;;;;4.38;1.85;;;;;;;;;;5030390;28;20672;-75
2021/08/04 00:52:07;;;;;;;1.95;0.82;;;;;;;;;;5033147;28;20036;-76
2021/08/04 00:55:10;;;;;;;4.53;1.67;;;;;;;;;;5031490;28;20048;-75
2021/08/04 00:58:14;;;;;;;1.65;1.40;;;;;;;;;;5032423;28;20033;-75
2021/08/04 01:01:20;;;;;;;1.02;0.68;;;;;;;;;;5034279;28;20032;-76
2021/08/04 01:04:30;;;;;;;2.90;0.80;;;;;;;;;;5036468;28;20032;-75
2021/08/04 01:07:33;;;;;;;3.80;1.67;;;;;;;;;;5035439;28;20986;-76
2021/08/04 01:10:38;;;;;;;3.17;0.98;;;;;;;;;;5036844;28;20028;-76
2021/08/04 01:13:46;;;;;;;1.60;0.95;;;;;;;;;;5036489;28;20037;-75
2021/08/04 01:16:50;;;;;;;2.67;1.02;;;;;;;;;;5036200;28;20045;-75
2021/08/04 01:19:57;;;;;;;2.35;1.30;;;;;;;;;;5036067;28;20036;-75
2021/08/04 01:23:19;;;;;;;7.70;1.38;;;;;;;;;;5036366;28;20036;-75
2021/08/04 01:26:39;;;;;;;4.13;1.33;;;;;;;;;;5036085;28;20041;-75
2021/08/04 01:29:43;;;;;;;2.45;1.13;;;;;;;;;;5035864;28;20040;-75
2021/08/04 01:32:47;;;;;;;6.82;1.55;;;;;;;;;;5036598;28;20385;-76
2021/08/04 01:35:52;;;;;;;4.55;1.33;;;;;;;;;;5035095;28;21064;-75
2021/08/04 01:38:57;;;;;;;4.35;1.20;;;;;;;;;;5034416;28;20037;-75
2021/08/04 01:42:01;;;;;;;2.90;1.35;;;;;;;;;;5034998;28;20036;-75
2021/08/04 01:45:05;;;;;;;1.75;0.98;;;;;;;;;;5034898;28;20040;-76
2021/08/04 01:48:08;;;;;;;6.57;1.40;;;;;;;;;;5071921;28;20040;-75
2021/08/04 01:51:12;;;;;;;13.20;1.27;;;;;;;;;;5073656;28;20060;-74
2021/08/04 01:54:15;;;;;;;1.45;0.57;;;;;;;;;;5073895;28;20048;-75
2021/08/04 01:57:19;;;;;;;3.63;1.05;;;;;;;;;;5074324;28;20033;-78
2021/08/04 02:00:22;;;;;;;3.28;1.45;;;;;;;;;;5073622;28;20036;-77
2021/08/04 02:03:25;;;;;;;1.63;0.80;;;;;;;;;;5073205;28;20040;-78
2021/08/04 02:06:40;;;;;;;1.20;0.50;;;;;;;;;;5073639;28;20053;-77
2021/08/04 02:09:50;;;;;;;2.08;1.38;;;;;;;;;;5073730;28;20044;-78
2021/08/04 02:12:56;;;;;;;0.75;0.70;;;;;;;;;;5072917;28;20489;-78
2021/08/04 02:16:07;;;;;;;2.35;0.75;;;;;;;;;;5073491;28;20378;-77
2021/08/04 02:19:15;;;;;;;2.00;1.00;;;;;;;;;;5073564;28;20103;-77
2021/08/04 02:22:26;;;;;;;5.68;1.45;;;;;;;;;;5073329;28;20036;-77
2021/08/04 02:25:30;;;;;;;4.63;1.48;;;;;;;;;;5071956;28;20381;-78
2021/08/04 02:28:38;;;;;;;1.83;1.00;;;;;;;;;;5073355;28;20041;-77
2021/08/04 02:31:41;;;;;;;4.78;1.33;;;;;;;;;;5079905;28;20037;-78
2021/08/04 02:34:44;;;;;;;1.25;0.57;;;;;;;;;;5080140;28;20053;-77
2021/08/04 02:37:48;;;;;;;2.05;1.20;;;;;;;;;;5074747;28;20044;-77
2021/08/04 02:40:51;;;;;;;2.25;1.13;;;;;;;;;;5074707;28;20062;-77
2021/08/04 02:43:54;;;;;;;5.40;2.00;;;;;;;;;;5075292;28;20044;-77
2021/08/04 02:46:58;;;;;;;2.28;0.32;;;;;;;;;;5075827;28;20040;-77
2021/08/04 02:50:03;;;;;;;5.20;1.60;;;;;;;;;;5077641;28;20036;-77
2021/08/04 02:53:06;;;;;;;2.75;0.85;;;;;;;;;;5073457;28;20037;-77
2021/08/04 02:56:09;;;;;;;0.63;0.60;;;;;;;;;;5073733;28;20374;-78
2021/08/04 02:59:12;;;;;;;5.15;1.45;;;;;;;;;;5072889;28;20037;-79
2021/08/04 03:02:15;;;;;;;8.25;1.10;;;;;;;;;;5072848;28;20033;-78
2021/08/04 03:05:19;;;;;;;5.88;1.52;;;;;;;;;;5071883;28;20037;-79
2021/08/04 03:08:22;;;;;;;2.33;1.25;;;;;;;;;;5071991;28;20045;-79
2021/08/04 03:11:25;;;;;;;1.85;1.13;;;;;;;;;;5072150;28;20044;-78
2021/08/04 03:14:28;;;;;;;2.88;1.42;;;;;;;;;;5070923;28;20053;-78
2021/08/04 03:17:31;;;;;;;2.72;1.02;;;;;;;;;;5072229;28;20472;-78
2021/08/04 03:20:34;;;;;;;3.28;0.93;;;;;;;;;;5072160;28;20488;-78
2021/08/04 03:23:38;;;;;;;4.28;1.45;;;;;;;;;;5071945;28;20036;-78
2021/08/04 03:26:41;;;;;;;1.17;0.75;;;;;;;;;;5070150;28;20028;-78
2021/08/04 03:29:44;;;;;;;4.60;2.05;;;;;;;;;;5071972;28;20060;-78
2021/08/04 03:32:47;;;;;;;2.05;1.15;;;;;;;;;;5071345;28;20041;-78
2021/08/04 03:35:50;;;;;;;1.40;0.52;;;;;;;;;;5072098;28;20045;-78
2021/08/04 03:38:53;;;;;;;2.10;0.88;;;;;;;;;;5072314;28;20037;-78
2021/08/04 03:41:56;;;;;;;1.73;1.02;;;;;;;;;;5072272;28;20044;-78
2021/08/04 03:45:00;;;;;;;2.58;0.75;;;;;;;;;;5072176;28;20036;-79
2021/08/04 03:48:03;;;;;;;2.15;0.70;;;;;;;;;;5072011;28;20037;-79
2021/08/04 03:51:06;;;;;;;4.13;1.20;;;;;;;;;;5094504;28;20036;-79
2021/08/04 03:54:09;;;;;;;11.10;1.08;;;;;;;;;;5071868;28;20037;-79
2021/08/04 03:57:13;;;;;;;1.30;0.68;;;;;;;;;;5071367;28;20040;-79
2021/08/04 04:00:16;;;;;;;4.22;1.65;;;;;;;;;;5072028;28;20040;-78
2021/08/04 04:03:19;;;;;;;1.00;0.85;;;;;;;;;;5071568;28;20381;-79
2021/08/04 04:06:22;;;;;;;1.52;0.80;;;;;;;;;;5071367;28;20045;-79
2021/08/04 04:09:26;;;;;;;2.30;1.00;;;;;;;;;;5071444;28;20040;-78
2021/08/04 04:12:29;;;;;;;1.48;0.65;;;;;;;;;;5072411;28;20048;-79
2021/08/04 04:15:32;;;;;;;1.45;1.00;;;;;;;;;;5076106;28;20048;-78
2021/08/04 04:18:36;;;;;;;2.28;0.95;;;;;;;;;;5075501;28;20044;-79
2021/08/04 04:21:39;;;;;;;5.28;0.98;;;;;;;;;;5071403;28;20488;-79
2021/08/04 04:24:42;;;;;;;1.17;0.43;;;;;;;;;;5070999;28;20036;-79
2021/08/04 04:27:45;;;;;;;4.15;1.42;;;;;;;;;;5071211;28;20033;-79
2021/08/04 04:30:49;;;;;;;2.17;1.20;;;;;;;;;;5071717;28;20036;-79
2021/08/04 04:33:52;;;;;;;1.40;1.15;;;;;;;;;;5071087;28;20041;-80
2021/08/04 04:36:55;;;;;;;2.38;1.08;;;;;;;;;;5074468;28;20044;-81
2021/08/04 04:39:58;;;;;;;3.40;1.02;;;;;;;;;;5075607;28;20044;-79
2021/08/04 04:43:01;;;;;;;2.70;1.35;;;;;;;;;;5075502;28;20036;-79
2021/08/04 04:46:05;;;;;;;2.20;0.85;;;;;;;;;;5075317;28;20048;-79
2021/08/04 04:49:08;;;;;;;8.88;1.40;;;;;;;;;;5075524;28;20048;-79
2021/08/04 04:52:11;;;;;;;3.03;0.90;;;;;;;;;;5075134;28;20040;-79
2021/08/04 04:55:15;;;;;;;6.03;1.00;;;;;;;;;;5074595;28;20048;-79
2021/08/04 04:58:18;;;;;;;4.45;1.35;;;;;;;;;;5073513;28;20036;-79
2021/08/04 05:01:22;;;;;;;2.83;1.58;;;;;;;;;;5071519;28;20378;-78
2021/08/04 05:04:25;;;;;;;3.95;1.40;;;;;;;;;;5074624;28;20492;-79
2021/08/04 05:07:28;;;;;;;1.33;0.68;;;;;;;;;;5074612;28;20041;-79
2021/08/04 05:10:31;;;;;;;3.22;1.60;;;;;;;;;;5074590;28;20397;-79
2021/08/04 05:13:38;;;;;;;2.75;0.88;;;;;;;;;;5074580;28;20524;-79
2021/08/04 05:16:41;;;;;;;2.63;1.38;;;;;;;;;;5074434;28;20378;-79
2021/08/04 05:19:44;;;;;;;4.07;0.98;;;;;;;;;;5074482;28;20036;-79
2021/08/04 05:22:47;;;;;;;3.83;0.98;;;;;;;;;;5074910;28;20036;-79
2021/08/04 05:25:50;;;;;;;2.33;0.75;;;;;;;;;;5073322;28;20477;-78
2021/08/04 05:28:53;;;;;;;3.05;1.45;;;;;;;;;;5074508;28;20037;-77
2021/08/04 05:31:56;;;;;;;2.53;0.52;;;;;;;;;;5074427;28;20036;-77
2021/08/04 05:35:00;;;;;;;2.45;1.20;;;;;;;;;;5074584;28;20052;-78
2021/08/04 05:38:03;;;;;;;6.15;2.03;;;;;;;;;;5074438;28;20041;-77
2021/08/04 05:41:06;;;;;;;5.25;1.15;;;;;;;;;;5074342;28;20041;-78
2021/08/04 05:44:09;;;;;;;2.13;1.45;;;;;;;;;;5074136;28;20032;-78
2021/08/04 05:47:12;;;;;;;3.03;0.93;;;;;;;;;;5072962;28;20037;-78
2021/08/04 05:50:15;;;;;;;4.45;1.27;;;;;;;;;;5073485;28;20036;-78
2021/08/04 05:53:18;;;;;;;4.15;1.02;;;;;;;;;;5073883;28;20037;-78
2021/08/04 05:56:22;;;;;;;1.20;0.73;;;;;;;;;;5072099;28;20044;-78
2021/08/04 05:59:25;;;;;;;2.53;0.73;;;;;;;;;;5073281;28;20497;-77
2021/08/04 06:02:29;;;;;;;2.30;1.15;;;;;;;;;;5073821;28;20481;-78
2021/08/04 06:05:32;;;;;;;2.40;1.15;;;;;;;;;;5072544;28;20036;-77
2021/08/04 06:08:36;;;;;;;2.78;1.13;;;;;;;;;;5071740;28;20041;-78
2021/08/04 06:11:38;;;;;;;1.88;0.95;;;;;;;;;;5072638;28;20036;-78
2021/08/04 06:14:42;;;;;;;2.95;0.63;;;;;;;;;;5072660;28;20380;-78
2021/08/04 06:17:45;;;;;;;2.10;0.70;;;;;;;;;;5073083;28;20041;-78
2021/08/04 06:20:48;;;;;;;4.10;1.38;;;;;;;;;;5072435;28;20033;-78
2021/08/04 06:23:52;;;;;;;2.00;0.80;;;;;;;;;;5073137;28;20040;-79
2021/08/04 06:26:55;;;;;;;3.13;0.77;;;;;;;;;;5072147;28;20492;-78
2021/08/04 06:29:58;;;;;;;9.52;1.40;;;;;;;;;;5073194;28;20045;-79
2021/08/04 06:33:01;;;;;;;5.72;1.00;;;;;;;;;;5072446;28;20044;-78
2021/08/04 06:36:04;;;;;;;2.17;0.80;;;;;;;;;;5072388;28;20386;-78
2021/08/04 06:39:08;;;;;;;5.03;1.20;;;;;;;;;;5073163;28;20044;-78
2021/08/04 06:42:11;;;;;;;3.13;0.98;;;;;;;;;;5072092;28;20040;-78
2021/08/04 06:45:14;;;;;;;7.00;1.73;;;;;;;;;;5072570;28;20040;-78
2021/08/04 06:48:17;;;;;;;6.25;1.05;;;;;;;;;;5072598;28;20044;-77
2021/08/04 06:51:20;;;;;;;4.60;1.02;;;;;;;;;;5072060;28;20032;-78
2021/08/04 06:54:24;;;;;;;3.58;1.58;;;;;;;;;;5071860;28;20041;-78
2021/08/04 06:57:28;;;;;;;5.43;2.25;;;;;;;;;;5070520;28;20048;-78
2021/08/04 07:00:31;;;;;;;1.05;0.85;;;;;;;;;;5071369;28;20036;-78
2021/08/04 07:03:38;;;;;;;4.25;2.10;;;;;;;;;;5072131;28;20481;-78
2021/08/04 07:06:54;;;;;;;4.40;2.60;;;;;;;;;;5071511;28;20045;-78
2021/08/04 07:09:57;;;;;;;6.15;1.35;;;;;;;;;;5071953;28;20040;-78
2021/08/04 07:13:01;;;;;;;5.80;1.95;;;;;;;;;;5072490;28;20044;-78
2021/08/04 07:16:04;;;;;;;17.00;2.55;;;;;;;;;;5071920;28;20041;-79
2021/08/04 07:19:07;;;;;;;7.05;2.28;;;;;;;;;;5072017;28;20052;-78
2021/08/04 07:22:10;;;;;;;6.50;2.72;;;;;;;;;;5071717;28;20044;-78
2021/08/04 07:25:14;;;;;;;6.20;2.50;;;;;;;;;;5071904;28;20040;-78
2021/08/04 07:28:18;;;;;;;7.13;2.58;;;;;;;;;;5072079;28;20044;-77
2021/08/04 07:31:21;;;;;;;7.72;1.77;;;;;;;;;;5072023;28;20045;-78
2021/08/04 07:34:24;;;;;;;8.40;2.53;;;;;;;;;;5071720;28;20056;-77
2021/08/04 07:37:28;;;;;;;5.75;1.92;;;;;;;;;;5071641;28;20048;-77
2021/08/04 07:40:33;;;;;;;7.85;2.08;;;;;;;;;;5063173;28;20051;-77
2021/08/04 07:43:36;;;;;;;4.07;1.58;;;;;;;;;;5072188;28;20040;-77
2021/08/04 07:46:39;;;;;;;6.07;2.35;;;;;;;;;;5071464;28;20040;-79
2021/08/04 07:49:43;;;;;;;5.72;1.88;;;;;;;;;;5060132;28;20541;-78
2021/08/04 07:52:46;;;;;;;9.05;1.65;;;;;;;;;;5046666;28;20036;-77
2021/08/04 07:55:49;;;;;;;5.38;2.08;;;;;;;;;;5072074;28;20052;-77
2021/08/04 07:58:53;;;;;;;4.93;1.73;;;;;;;;;;5071214;28;20044;-77
2021/08/04 08:01:57;;;;;;;6.82;1.35;;;;;;;;;;5052302;28;20040;-77
2021/08/04 08:05:00;;;;;;;7.90;1.77;;;;;;;;;;5051250;28;20375;-77
2021/08/04 08:08:04;;;;;;;9.98;1.92;;;;;;;;;;5050010;28;20378;-78
2021/08/04 08:11:07;;;;;;;7.88;1.80;;;;;;;;;;5049181;28;20045;-77
2021/08/04 08:14:11;;;;;;;6.32;2.42;;;;;;;;;;5050947;28;20473;-77
2021/08/04 08:17:14;;;;;;;5.88;1.63;;;;;;;;;;5050772;28;20049;-77
2021/08/04 08:20:19;;;;;;;6.07;1.83;;;;;;;;;;5049492;28;20040;-77
2021/08/04 08:23:22;;;;;;;5.00;1.90;;;;;;;;;;5048588;28;20040;-77
2021/08/04 08:26:26;;;;;;;4.43;1.90;;;;;;;;;;5048859;28;20048;-75
2021/08/04 08:29:29;;;;;;;10.48;2.50;;;;;;;;;;5048916;28;20041;-77
2021/08/04 08:32:32;;;;;;;9.25;1.55;;;;;;;;;;5049021;28;20049;-77
2021/08/04 08:35:35;;;;;;;9.95;1.77;;;;;;;;;;5050620;28;20052;-76
2021/08/04 08:38:38;;;;;;;5.22;1.58;;;;;;;;;;5050853;28;20041;-76
2021/08/04 08:41:43;;;;;;;2.15;0.90;;;;;;;;;;5051230;28;20045;-78
2021/08/04 08:44:46;;;;;;;8.38;1.40;;;;;;;;;;5052082;28;20037;-77
2021/08/04 08:47:50;;;;;;;4.93;1.20;;;;;;;;;;5055860;28;20041;-77
2021/08/04 08:50:53;;;;;;;3.25;0.80;;;;;;;;;;5051541;28;20045;-77
2021/08/04 08:53:57;;;;;;;4.60;0.98;;;;;;;;;;5051672;28;20041;-78
2021/08/04 08:57:00;;;;;;;2.63;1.23;;;;;;;;;;5051037;28;20053;-79
2021/08/04 09:00:04;;;;;;;3.47;1.05;;;;;;;;;;5060203;28;20044;-78
2021/08/04 09:03:07;;;;;;;1.80;0.63;;;;;;;;;;5071243;28;20480;-78
2021/08/04 09:06:10;;;;;;;2.30;0.75;;;;;;;;;;5071003;28;20037;-76
2021/08/04 09:09:18;;;;;;;4.93;0.95;;;;;;;;;;5071267;28;20037;-76
2021/08/04 09:12:21;;;;;;;2.38;0.80;;;;;;;;;;5070803;28;20378;-75
2021/08/04 09:15:26;;;;;;;9.15;0.90;;;;;;;;;;5070007;28;20056;-75
2021/08/04 09:18:37;;;;;;;6.82;0.70;;;;;;;;;;5071090;28;20041;-75
2021/08/04 09:21:40;;;;;;;2.05;0.55;;;;;;;;;;5071307;28;20044;-75
2021/08/04 09:24:53;;;;;;;4.47;1.55;;;;;;;;;;5074104;28;20045;-76
2021/08/04 09:27:58;;;;;;;1.83;0.55;;;;;;;;;;5074406;28;20040;-76
2021/08/04 09:31:02;;;;;;;3.80;1.10;;;;;;;;;;5074849;28;20044;-77
2021/08/04 09:34:25;;;;;;;4.80;1.27;;;;;;;;;;5073702;28;20622;-77
2021/08/04 09:37:28;;;;;;;5.88;0.77;;;;;;;;;;5073755;28;20045;-75
2021/08/04 09:40:31;;;;;;;4.90;1.42;;;;;;;;;;5074349;28;20111;-77
2021/08/04 09:43:35;;;;;;;3.33;0.88;;;;;;;;;;5074302;28;20036;-75
2021/08/04 09:46:38;;;;;;;1.75;0.52;;;;;;;;;;5074266;28;20036;-75
2021/08/04 09:49:52;;;;;;;4.00;0.77;;;;;;;;;;5074104;28;20045;-75
2021/08/04 09:52:57;;;;;;;1.63;0.50;;;;;;;;;;5074331;28;20044;-76
2021/08/04 09:56:03;;;;;;;5.18;0.80;;;;;;;;;;5073892;28;20049;-77
2021/08/04 09:59:09;;;;;;;3.25;0.98;;;;;;;;;;5073574;28;20048;-75
2021/08/04 10:02:28;;;;;;;3.03;1.13;;;;;;;;;;5074026;28;20041;-76
2021/08/04 10:05:31;;;;;;;3.67;0.93;;;;;;;;;;5073378;28;20040;-75
2021/08/04 10:08:37;;;;;;;1.60;0.68;;;;;;;;;;5073475;28;20044;-75
2021/08/04 10:11:43;;;;;;;3.13;0.63;;;;;;;;;;5073106;28;20588;-75
2021/08/04 10:14:46;;;;;;;3.30;0.73;;;;;;;;;;5073566;28;20040;-76
2021/08/04 10:17:50;;;;;;;1.73;0.77;;;;;;;;;;5073729;28;20045;-75
2021/08/04 10:20:54;;;;;;;4.53;0.47;;;;;;;;;;5073465;28;20040;-75
2021/08/04 10:23:59;;;;;;;3.83;0.98;;;;;;;;;;5073181;28;20041;-76
2021/08/04 10:27:02;;;;;;;1.73;0.60;;;;;;;;;;5071545;28;20481;-77
2021/08/04 10:30:07;;;;;;;1.88;0.80;;;;;;;;;;5073308;28;20048;-77
2021/08/04 10:33:11;;;;;;;3.33;0.80;;;;;;;;;;5072599;28;20048;-76
2021/08/04 10:36:15;;;;;;;2.40;0.85;;;;;;;;;;5072793;28;20074;-76
2021/08/04 10:39:18;;;;;;;2.17;0.70;;;;;;;;;;5073067;28;20045;-77
2021/08/04 10:42:36;;;;;;;2.53;0.60;;;;;;;;;;5072839;28;20036;-77
2021/08/04 10:45:39;;;;;;;4.80;0.88;;;;;;;;;;5072911;28;20044;-77
2021/08/04 10:48:42;;;;;;;3.63;0.90;;;;;;;;;;5072993;28;20041;-76
2021/08/04 10:51:52;;;;;;;3.05;1.05;;;;;;;;;;5072351;28;20036;-77
2021/08/04 10:55:02;;;;;;;1.98;0.75;;;;;;;;;;5072938;28;20032;-77
2021/08/04 10:58:06;;;;;;;3.47;0.80;;;;;;;;;;5072918;28;20048;-76
2021/08/04 11:01:24;;;;;;;2.92;0.88;;;;;;;;;;5072749;28;20472;-76
2021/08/04 11:04:27;;;;;;;2.45;0.35;;;;;;;;;;5072562;28;20385;-77
2021/08/04 11:07:31;;;;;;;2.88;0.90;;;;;;;;;;5072309;28;20036;-75
2021/08/04 11:10:37;;;;;;;3.72;0.95;;;;;;;;;;5072415;28;20040;-74
2021/08/04 11:13:54;;;;;;;2.10;0.80;;;;;;;;;;5072154;28;20052;-76
2021/08/04 11:17:01;;;;;;;4.85;0.43;;;;;;;;;;5072377;28;20048;-75
2021/08/04 11:20:08;;;;;;;3.50;0.30;;;;;;;;;;5072645;28;20378;-75
2021/08/04 11:23:11;;;;;;;4.00;0.77;;;;;;;;;;5072423;28;20040;-76
2021/08/04 11:26:31;;;;;;;3.05;0.52;;;;;;;;;;5071440;28;20041;-77
2021/08/04 11:29:44;;;;;;;11.30;1.52;;;;;;;;;;5069227;28;20481;-78
2021/08/04 11:32:48;;;;;;;3.53;1.23;;;;;;;;;;5070420;28;20051;-77
2021/08/04 11:36:08;;;;;;;4.32;1.60;;;;;;;;;;5068016;28;20048;-78
2021/08/04 11:39:11;;;;;;;2.45;1.08;;;;;;;;;;5052187;28;20037;-78
2021/08/04 11:42:15;;;;;;;4.97;1.45;;;;;;;;;;5052362;28;20370;-78
2021/08/04 11:45:18;;;;;;;2.05;0.85;;;;;;;;;;5051377;28;20045;-77
2021/08/04 11:48:21;;;;;;;3.03;1.15;;;;;;;;;;5052031;28;20044;-78
2021/08/04 11:51:39;;;;;;;11.82;1.70;;;;;;;;;;5051290;28;20482;-78
2021/08/04 11:54:46;;;;;;;1.85;0.60;;;;;;;;;;5051534;28;20048;-77
2021/08/04 11:57:55;;;;;;;2.58;0.73;;;;;;;;;;5051664;28;20048;-76
2021/08/04 12:01:15;;;;;;;2.08;0.65;;;;;;;;;;5069284;28;20044;-76
2021/08/04 12:04:18;;;;;;;1.88;0.43;;;;;;;;;;5071901;28;20040;-77
2021/08/04 12:07:25;;;;;;;5.68;0.60;;;;;;;;;;5071376;28;20048;-77
2021/08/04 12:10:28;;;;;;;4.13;0.60;;;;;;;;;;5071249;28;20040;-77
2021/08/04 12:13:32;;;;;;;1.15;0.63;;;;;;;;;;5071749;28;20037;-76
2021/08/04 12:16:44;;;;;;;5.30;1.20;;;;;;;;;;5071591;28;20056;-75
2021/08/04 12:19:48;;;;;;;3.53;0.82;;;;;;;;;;5070611;28;20489;-75
2021/08/04 12:23:05;;;;;;;3.13;0.73;;;;;;;;;;5069660;28;20037;-74
2021/08/04 12:26:07;;;;;;;2.33;1.00;;;;;;;;;;5070385;28;20040;-76
2021/08/04 12:29:18;;;;;;;2.40;0.40;;;;;;;;;;5071492;28;20045;-77
2021/08/04 12:32:28;;;;;;;3.20;0.75;;;;;;;;;;5071237;28;20044;-77
2021/08/04 12:35:42;;;;;;;3.17;0.63;;;;;;;;;;5070990;28;20369;-75
2021/08/04 12:38:47;;;;;;;2.20;0.47;;;;;;;;;;5070196;28;20036;-77
2021/08/04 12:41:50;;;;;;;2.28;0.55;;;;;;;;;;5071277;28;20373;-77
2021/08/04 12:45:13;;;;;;;0.82;0.30;;;;;;;;;;5071020;28;20044;-76
2021/08/04 12:48:17;;;;;;;6.93;1.05;;;;;;;;;;5066743;28;20383;-75
2021/08/04 12:51:22;;;;;;;0.88;0.15;;;;;;;;;;5069462;28;20473;-76
2021/08/04 12:54:30;;;;;;;4.30;0.63;;;;;;;;;;5067624;28;20037;-77
2021/08/04 12:57:33;;;;;;;1.25;0.55;;;;;;;;;;5071150;28;20048;-76
2021/08/04 13:00:37;;;;;;;0.88;0.25;;;;;;;;;;5075189;28;20040;-76
2021/08/04 13:03:40;;;;;;;0.85;0.10;;;;;;;;;;5074543;28;20037;-75
2021/08/04 13:06:49;;;;;;;4.05;0.22;;;;;;;;;;5074668;28;20036;-76
2021/08/04 13:09:53;;;;;;;0.88;0.40;;;;;;;;;;5074140;28;20036;-76
2021/08/04 13:12:56;;;;;;;1.40;0.40;;;;;;;;;;5074831;28;20044;-76
2021/08/04 13:15:59;;;;;;;0.82;0.40;;;;;;;;;;5074749;28;20393;-76
2021/08/04 13:19:03;;;;;;;1.80;0.45;;;;;;;;;;5075070;28;20036;-75
2021/08/04 13:22:07;;;;;;;0.80;0.13;;;;;;;;;;5074688;28;20045;-76
2021/08/04 13:25:10;;;;;;;1.67;0.70;;;;;;;;;;5074530;28;20044;-75
2021/08/04 13:28:14;;;;;;;0.70;0.17;;;;;;;;;;5074088;28;20041;-74
2021/08/04 13:31:19;;;;;;;2.40;0.47;;;;;;;;;;5074646;28;20044;-75
2021/08/04 13:34:23;;;;;;;2.17;0.60;;;;;;;;;;5074036;28;20378;-76
2021/08/04 13:37:26;;;;;;;1.73;0.38;;;;;;;;;;5073365;28;20052;-74
2021/08/04 13:40:29;;;;;;;2.17;0.35;;;;;;;;;;5072859;28;20044;-74
2021/08/04 13:43:33;;;;;;;2.05;0.28;;;;;;;;;;5073366;28;20044;-74
2021/08/04 13:46:36;;;;;;;0.73;0.10;;;;;;;;;;5073717;28;20362;-74
2021/08/04 13:49:39;;;;;;;2.40;0.32;;;;;;;;;;5073015;28;20393;-74
2021/08/04 13:52:43;;;;;;;9.55;0.93;;;;;;;;;;5073549;28;20040;-74
2021/08/04 13:55:46;;;;;;;4.68;0.63;;;;;;;;;;5073808;28;20053;-75
2021/08/04 13:58:49;;;;;;;4.20;1.00;;;;;;;;;;5074167;28;20040;-72
2021/08/04 14:01:52;;;;;;;0.70;0.20;;;;;;;;;;5054067;28;20037;-75
2021/08/04 14:04:56;;;;;;;2.47;0.43;;;;;;;;;;5053369;28;20470;-79
2021/08/04 14:07:59;;;;;;;0.70;0.10;;;;;;;;;;5052794;28;20041;-74
2021/08/04 14:11:02;;;;;;;1.15;0.20;;;;;;;;;;5054185;28;20045;-76
2021/08/04 14:14:05;;;;;;;0.10;0.10;;;;;;;;;;5053926;28;20378;-76
2021/08/04 14:17:09;;;;;;;0.88;0.35;;;;;;;;;;5053579;28;20394;-76
2021/08/04 14:20:43;;;;;;;1.15;0.65;;;;;;;;;;5053551;28;20041;-82
2021/08/04 14:23:48;;;;;;;0.88;0.20;;;;;;;;;;5068840;28;20033;-80
2021/08/04 14:26:52;;;;;;;0.30;0.10;;;;;;;;;;5073255;28;20036;-80
2021/08/04 14:29:55;;;;;;;0.80;0.20;;;;;;;;;;5074438;28;20041;-80
2021/08/04 14:32:58;;;;;;;0.65;0.17;;;;;;;;;;5074018;28;20052;-80
2021/08/04 14:36:04;;;;;;;1.17;0.32;;;;;;;;;;5073955;28;20048;-80
2021/08/04 14:39:08;;;;;;;0.63;0.20;;;;;;;;;;5072152;28;20045;-83
2021/08/04 14:46:19;;;;;;;1.75;0.10;;;;;;;;;;5083334;28;20036;-84
2021/08/04 14:49:31;;;;;;;0.77;0.00;;;;;;;;;;5093622;28;20048;-80
2021/08/04 14:52:35;;;;;;;0.47;0.20;;;;;;;;;;5088357;28;20556;-79
2021/08/04 14:55:38;;;;;;;0.25;0.10;;;;;;;;;;5069806;28;20052;-77
2021/08/04 14:58:41;;;;;;;8.30;0.63;;;;;;;;;;5071460;28;20036;-80
2021/08/04 15:01:44;;;;;;;1.30;0.20;;;;;;;;;;5053875;28;20033;-80
2021/08/04 15:04:47;;;;;;;0.50;0.10;;;;;;;;;;5065822;28;20037;-79
2021/08/04 15:07:51;;;;;;;2.33;0.73;;;;;;;;;;5039843;28;20037;-77
2021/08/04 15:10:57;;;;;;;2.33;0.10;;;;;;;;;;5053468;28;20477;-75
2021/08/04 15:14:01;;;;;;;3.65;0.20;;;;;;;;;;5055181;28;20383;-80
2021/08/04 15:20:47;;;;;;;1.35;0.30;;;;;;;;;;5052460;28;20382;-89
2021/08/04 15:23:54;;;;;;;0.82;0.20;;;;;;;;;;5052793;28;20041;-83
2021/08/04 15:26:59;;;;;;;2.45;0.32;;;;;;;;;;5052074;28;20037;-82
2021/08/04 15:30:03;;;;;;;0.93;0.10;;;;;;;;;;5074787;28;20045;-81
2021/08/04 15:33:06;;;;;;;1.60;0.30;;;;;;;;;;5052716;28;20045;-83
2021/08/04 15:36:10;;;;;;;1.08;0.32;;;;;;;;;;5075059;28;20044;-83
2021/08/04 15:39:13;;;;;;;4.38;0.20;;;;;;;;;;5051809;28;20037;-84
2021/08/04 15:42:16;;;;;;;0.73;0.13;;;;;;;;;;5051605;28;20037;-82
2021/08/04 15:45:20;;;;;;;0.40;0.10;;;;;;;;;;5052354;28;20041;-83
2021/08/04 15:48:23;;;;;;;5.38;0.20;;;;;;;;;;5051640;28;20041;-85
2021/08/04 15:51:27;;;;;;;0.35;0.15;;;;;;;;;;5051627;28;20033;-84
2021/08/04 15:54:30;;;;;;;1.67;0.17;;;;;;;;;;5051749;28;20041;-82
2021/08/04 15:57:32;;;;;;;0.40;0.20;;;;;;;;;;5052060;28;20044;-85
2021/08/04 16:00:36;;;;;;;1.48;0.45;;;;;;;;;;5065510;28;20373;-84
2021/08/04 16:03:39;;;;;;;1.02;0.10;;;;;;;;;;5072231;28;20036;-84
2021/08/04 16:06:42;;;;;;;2.00;0.30;;;;;;;;;;5051345;28;20037;-83
2021/08/04 16:09:46;;;;;;;1.00;0.10;;;;;;;;;;5051851;28;20037;-82
2021/08/04 16:12:49;;;;;;;0.95;0.10;;;;;;;;;;5052587;28;20044;-84
2021/08/04 16:15:52;;;;;;;0.30;0.10;;;;;;;;;;5052366;28;20489;-84
2021/08/04 16:18:55;;;;;;;0.55;0.10;;;;;;;;;;5052981;28;20033;-81
2021/08/04 16:21:58;;;;;;;0.88;0.17;;;;;;;;;;5054160;28;20041;-80
2021/08/04 16:25:02;;;;;;;0.45;0.10;;;;;;;;;;5053334;28;20037;-77
2021/08/04 16:28:06;;;;;;;1.15;0.10;;;;;;;;;;5052630;28;20041;-80
2021/08/04 16:31:11;;;;;;;1.98;0.45;;;;;;;;;;5051121;28;20041;-80
2021/08/04 16:34:14;;;;;;;0.65;0.20;;;;;;;;;;5056377;28;20041;-81
2021/08/04 16:37:17;;;;;;;0.88;0.20;;;;;;;;;;5055841;28;20053;-80
2021/08/04 16:40:20;;;;;;;1.60;0.43;;;;;;;;;;5055949;28;20501;-81
2021/08/04 16:43:24;;;;;;;2.25;0.20;;;;;;;;;;5055771;28;20045;-81
2021/08/04 16:46:27;;;;;;;2.67;0.40;;;;;;;;;;5056257;28;20044;-81
2021/08/04 16:49:33;;;;;;;1.40;0.32;;;;;;;;;;5049506;28;20037;-81
2021/08/04 16:52:37;;;;;;;0.73;0.20;;;;;;;;;;5053463;28;20041;-81
2021/08/04 16:55:40;;;;;;;0.88;0.40;;;;;;;;;;5072804;28;20036;-80
2021/08/04 16:58:44;;;;;;;1.40;0.28;;;;;;;;;;5074808;28;20485;-80
2021/08/04 17:01:47;;;;;;;2.53;0.65;;;;;;;;;;5074634;28;20041;-81
2021/08/04 17:04:50;;;;;;;2.15;0.45;;;;;;;;;;5075029;28;20128;-80
2021/08/04 17:07:53;;;;;;;0.73;0.28;;;;;;;;;;5072918;28;20036;-81
2021/08/04 17:10:57;;;;;;;0.35;0.30;;;;;;;;;;5072318;28;20036;-81
2021/08/04 17:14:00;;;;;;;1.85;0.57;;;;;;;;;;5074070;28;20489;-82
2021/08/04 17:17:03;;;;;;;2.65;0.80;;;;;;;;;;5073784;28;20060;-81
2021/08/04 17:20:07;;;;;;;1.10;0.30;;;;;;;;;;5074883;28;20036;-81
2021/08/04 17:23:10;;;;;;;1.98;0.50;;;;;;;;;;5074179;28;20036;-82
2021/08/04 17:26:14;;;;;;;3.90;0.63;;;;;;;;;;5073753;28;20041;-82
2021/08/04 17:29:17;;;;;;;0.85;0.22;;;;;;;;;;5073800;28;20041;-81
2021/08/04 17:32:20;;;;;;;2.25;0.52;;;;;;;;;;5072596;28;20044;-82
2021/08/04 17:35:23;;;;;;;3.47;0.43;;;;;;;;;;5072844;28;20037;-82
2021/08/04 17:38:28;;;;;;;3.05;0.32;;;;;;;;;;5072652;28;20052;-81
2021/08/04 17:41:31;;;;;;;1.38;0.40;;;;;;;;;;5073062;28;20040;-82
2021/08/04 17:44:34;;;;;;;0.55;0.20;;;;;;;;;;5074655;28;20045;-84
2021/08/04 17:47:37;;;;;;;3.00;0.47;;;;;;;;;;5075031;28;20044;-84
2021/08/04 17:50:40;;;;;;;2.70;0.88;;;;;;;;;;5074000;28;20037;-85
2021/08/04 17:53:44;;;;;;;0.95;0.40;;;;;;;;;;5075040;28;20040;-84
2021/08/04 17:56:47;;;;;;;2.33;0.30;;;;;;;;;;5074888;28;20048;-83
2021/08/04 17:59:50;;;;;;;0.88;0.20;;;;;;;;;;5074190;28;20044;-79
2021/08/04 18:02:53;;;;;;;4.63;0.47;;;;;;;;;;5075146;28;20040;-79
2021/08/04 18:05:56;;;;;;;1.15;0.32;;;;;;;;;;5075375;28;20037;-79
2021/08/04 18:09:00;;;;;;;10.65;0.73;;;;;;;;;;5076445;28;20041;-78
2021/08/04 18:12:04;;;;;;;1.80;0.55;;;;;;;;;;5075056;28;20044;-79
2021/08/04 18:15:07;;;;;;;0.88;0.40;;;;;;;;;;5073763;28;20040;-79
2021/08/04 18:18:12;;;;;;;0.75;0.43;;;;;;;;;;5073504;28;20045;-79
2021/08/04 18:21:15;;;;;;;3.22;0.17;;;;;;;;;;5072849;28;20481;-78
2021/08/04 18:24:19;;;;;;;0.88;0.20;;;;;;;;;;5073130;28;20036;-78
2021/08/04 18:27:22;;;;;;;2.03;0.73;;;;;;;;;;5073198;28;20041;-77
2021/08/04 18:30:25;;;;;;;1.10;0.47;;;;;;;;;;5073584;28;20041;-77
2021/08/04 18:33:28;;;;;;;1.98;0.57;;;;;;;;;;5073430;28;20056;-77